sensor_id;sensor_type;location;lat;lon;timestamp;P1;durP1;ratioP1;P2;durP2;ratioP2
23115;SDS011;11727;52.134;5.052;2023-07-13T00:01:43;6.85;;;0.70;;
23115;SDS011;11727;52.134;5.052;2023-07-13T00:04:08;9.52;;;1.20;;
23115;SDS011;11727;52.134;5.052;2023-07-13T00:06:34;7.03;;;1.45;;
23115;SDS011;11727;52.134;5.052;2023-07-13T00:09:00;6.55;;;1.23;;
23115;SDS011;11727;52.134;5.052;2023-07-13T00:11:26;7.25;;;1.35;;
23115;SDS011;11727;52.134;5.052;2023-07-13T00:13:52;3.78;;;1.05;;
23115;SDS011;11727;52.134;5.052;2023-07-13T00:16:18;7.53;;;1.50;;
23115;SDS011;11727;52.134;5.052;2023-07-13T00:18:44;17.08;;;1.88;;
23115;SDS011;11727;52.134;5.052;2023-07-13T00:21:10;9.02;;;2.10;;
23115;SDS011;11727;52.134;5.052;2023-07-13T00:23:37;3.22;;;0.95;;
23115;SDS011;11727;52.134;5.052;2023-07-13T00:26:07;7.18;;;1.20;;
23115;SDS011;11727;52.134;5.052;2023-07-13T00:28:34;8.20;;;1.52;;
23115;SDS011;11727;52.134;5.052;2023-07-13T00:31:01;4.35;;;1.13;;
23115;SDS011;11727;52.134;5.052;2023-07-13T00:33:27;7.25;;;1.75;;
23115;SDS011;11727;52.134;5.052;2023-07-13T00:35:53;6.93;;;1.17;;
23115;SDS011;11727;52.134;5.052;2023-07-13T00:38:20;16.08;;;1.60;;
23115;SDS011;11727;52.134;5.052;2023-07-13T00:40:47;4.15;;;1.02;;
23115;SDS011;11727;52.134;5.052;2023-07-13T00:43:17;6.15;;;1.00;;
23115;SDS011;11727;52.134;5.052;2023-07-13T00:48:14;6.00;;;1.17;;
23115;SDS011;11727;52.134;5.052;2023-07-13T00:50:43;6.03;;;1.13;;
23115;SDS011;11727;52.134;5.052;2023-07-13T00:55:36;4.15;;;0.95;;
23115;SDS011;11727;52.134;5.052;2023-07-13T00:58:04;4.55;;;0.75;;
23115;SDS011;11727;52.134;5.052;2023-07-13T01:00:31;7.38;;;1.23;;
23115;SDS011;11727;52.134;5.052;2023-07-13T01:03:01;5.30;;;0.80;;
23115;SDS011;11727;52.134;5.052;2023-07-13T01:05:29;4.00;;;1.17;;
23115;SDS011;11727;52.134;5.052;2023-07-13T01:07:57;4.43;;;0.88;;
23115;SDS011;11727;52.134;5.052;2023-07-13T01:10:23;8.43;;;1.42;;
23115;SDS011;11727;52.134;5.052;2023-07-13T01:12:50;5.53;;;0.90;;
23115;SDS011;11727;52.134;5.052;2023-07-13T01:15:36;6.82;;;1.40;;
23115;SDS011;11727;52.134;5.052;2023-07-13T01:18:12;2.30;;;0.75;;
23115;SDS011;11727;52.134;5.052;2023-07-13T01:20:40;4.78;;;1.17;;
23115;SDS011;11727;52.134;5.052;2023-07-13T01:23:07;7.17;;;1.37;;
23115;SDS011;11727;52.134;5.052;2023-07-13T01:25:35;5.88;;;1.23;;
23115;SDS011;11727;52.134;5.052;2023-07-13T01:28:02;4.00;;;1.00;;
23115;SDS011;11727;52.134;5.052;2023-07-13T01:30:33;3.70;;;1.08;;
23115;SDS011;11727;52.134;5.052;2023-07-13T01:33:00;9.65;;;1.48;;
23115;SDS011;11727;52.134;5.052;2023-07-13T01:35:27;9.00;;;1.57;;
23115;SDS011;11727;52.134;5.052;2023-07-13T01:37:53;3.60;;;1.20;;
23115;SDS011;11727;52.134;5.052;2023-07-13T01:40:19;6.57;;;1.45;;
23115;SDS011;11727;52.134;5.052;2023-07-13T01:42:45;9.85;;;0.98;;
23115;SDS011;11727;52.134;5.052;2023-07-13T01:45:11;5.60;;;1.63;;
23115;SDS011;11727;52.134;5.052;2023-07-13T01:47:37;8.20;;;1.23;;
23115;SDS011;11727;52.134;5.052;2023-07-13T01:50:02;5.53;;;1.13;;
23115;SDS011;11727;52.134;5.052;2023-07-13T01:52:28;6.43;;;1.33;;
23115;SDS011;11727;52.134;5.052;2023-07-13T01:54:54;8.75;;;1.70;;
23115;SDS011;11727;52.134;5.052;2023-07-13T01:57:19;5.15;;;1.23;;
23115;SDS011;11727;52.134;5.052;2023-07-13T01:59:45;5.22;;;1.48;;
23115;SDS011;11727;52.134;5.052;2023-07-13T02:02:11;7.85;;;1.52;;
23115;SDS011;11727;52.134;5.052;2023-07-13T02:04:36;7.68;;;1.60;;
23115;SDS011;11727;52.134;5.052;2023-07-13T02:07:02;3.08;;;1.20;;
23115;SDS011;11727;52.134;5.052;2023-07-13T02:09:28;4.57;;;1.15;;
23115;SDS011;11727;52.134;5.052;2023-07-13T02:11:53;6.10;;;1.55;;
23115;SDS011;11727;52.134;5.052;2023-07-13T02:14:19;10.23;;;1.02;;
23115;SDS011;11727;52.134;5.052;2023-07-13T02:16:44;15.75;;;1.50;;
23115;SDS011;11727;52.134;5.052;2023-07-13T02:19:10;9.10;;;1.92;;
23115;SDS011;11727;52.134;5.052;2023-07-13T02:21:35;6.63;;;1.33;;
23115;SDS011;11727;52.134;5.052;2023-07-13T02:24:01;4.35;;;1.08;;
23115;SDS011;11727;52.134;5.052;2023-07-13T02:26:27;7.95;;;1.88;;
23115;SDS011;11727;52.134;5.052;2023-07-13T02:28:52;5.63;;;1.20;;
23115;SDS011;11727;52.134;5.052;2023-07-13T02:31:19;10.60;;;2.20;;
23115;SDS011;11727;52.134;5.052;2023-07-13T02:33:44;6.32;;;1.92;;
23115;SDS011;11727;52.134;5.052;2023-07-13T02:36:10;7.72;;;1.20;;
23115;SDS011;11727;52.134;5.052;2023-07-13T02:38:37;9.85;;;1.40;;
23115;SDS011;11727;52.134;5.052;2023-07-13T02:41:03;6.18;;;1.35;;
23115;SDS011;11727;52.134;5.052;2023-07-13T02:43:30;10.13;;;1.48;;
23115;SDS011;11727;52.134;5.052;2023-07-13T02:45:55;8.38;;;1.50;;
23115;SDS011;11727;52.134;5.052;2023-07-13T02:48:21;7.03;;;1.80;;
23115;SDS011;11727;52.134;5.052;2023-07-13T02:50:47;7.35;;;1.92;;
23115;SDS011;11727;52.134;5.052;2023-07-13T02:53:12;9.35;;;1.33;;
23115;SDS011;11727;52.134;5.052;2023-07-13T02:55:38;10.55;;;1.75;;
23115;SDS011;11727;52.134;5.052;2023-07-13T02:58:05;5.45;;;1.23;;
23115;SDS011;11727;52.134;5.052;2023-07-13T03:00:31;5.85;;;1.67;;
23115;SDS011;11727;52.134;5.052;2023-07-13T03:02:57;5.65;;;1.75;;
23115;SDS011;11727;52.134;5.052;2023-07-13T03:05:23;6.13;;;2.10;;
23115;SDS011;11727;52.134;5.052;2023-07-13T03:07:49;8.52;;;1.52;;
23115;SDS011;11727;52.134;5.052;2023-07-13T03:10:14;5.22;;;1.50;;
23115;SDS011;11727;52.134;5.052;2023-07-13T03:12:41;4.70;;;1.00;;
23115;SDS011;11727;52.134;5.052;2023-07-13T03:15:07;11.52;;;2.08;;
23115;SDS011;11727;52.134;5.052;2023-07-13T03:17:32;3.03;;;1.15;;
23115;SDS011;11727;52.134;5.052;2023-07-13T03:19:58;7.85;;;1.42;;
23115;SDS011;11727;52.134;5.052;2023-07-13T03:22:23;7.43;;;1.45;;
23115;SDS011;11727;52.134;5.052;2023-07-13T03:24:49;4.70;;;1.40;;
23115;SDS011;11727;52.134;5.052;2023-07-13T03:27:15;9.40;;;1.95;;
23115;SDS011;11727;52.134;5.052;2023-07-13T03:29:42;5.93;;;1.25;;
23115;SDS011;11727;52.134;5.052;2023-07-13T03:32:07;4.78;;;1.20;;
23115;SDS011;11727;52.134;5.052;2023-07-13T03:34:33;4.90;;;1.40;;
23115;SDS011;11727;52.134;5.052;2023-07-13T03:36:59;4.18;;;0.80;;
23115;SDS011;11727;52.134;5.052;2023-07-13T03:39:24;3.00;;;0.77;;
23115;SDS011;11727;52.134;5.052;2023-07-13T03:41:50;4.95;;;0.77;;
23115;SDS011;11727;52.134;5.052;2023-07-13T03:44:16;5.97;;;1.02;;
23115;SDS011;11727;52.134;5.052;2023-07-13T03:46:43;5.43;;;0.70;;
23115;SDS011;11727;52.134;5.052;2023-07-13T03:49:08;7.68;;;0.93;;
23115;SDS011;11727;52.134;5.052;2023-07-13T03:51:35;9.05;;;0.70;;
23115;SDS011;11727;52.134;5.052;2023-07-13T03:54:00;9.82;;;1.00;;
23115;SDS011;11727;52.134;5.052;2023-07-13T03:56:27;7.35;;;1.00;;
23115;SDS011;11727;52.134;5.052;2023-07-13T03:58:53;4.32;;;0.98;;
23115;SDS011;11727;52.134;5.052;2023-07-13T04:01:20;5.70;;;0.88;;
23115;SDS011;11727;52.134;5.052;2023-07-13T04:03:47;4.60;;;0.95;;
23115;SDS011;11727;52.134;5.052;2023-07-13T04:06:20;9.40;;;1.00;;
23115;SDS011;11727;52.134;5.052;2023-07-13T04:08:52;4.57;;;0.77;;
23115;SDS011;11727;52.134;5.052;2023-07-13T04:11:20;4.43;;;0.70;;
23115;SDS011;11727;52.134;5.052;2023-07-13T04:13:48;8.57;;;1.00;;
23115;SDS011;11727;52.134;5.052;2023-07-13T04:16:15;5.00;;;1.33;;
23115;SDS011;11727;52.134;5.052;2023-07-13T04:18:41;2.83;;;0.85;;
23115;SDS011;11727;52.134;5.052;2023-07-13T04:21:07;4.68;;;1.08;;
23115;SDS011;11727;52.134;5.052;2023-07-13T04:23:34;7.75;;;1.02;;
23115;SDS011;11727;52.134;5.052;2023-07-13T04:26:00;6.45;;;1.40;;
23115;SDS011;11727;52.134;5.052;2023-07-13T04:28:26;5.65;;;1.15;;
23115;SDS011;11727;52.134;5.052;2023-07-13T04:30:52;7.18;;;0.90;;
23115;SDS011;11727;52.134;5.052;2023-07-13T04:33:18;8.23;;;1.70;;
23115;SDS011;11727;52.134;5.052;2023-07-13T04:35:47;5.22;;;1.50;;
23115;SDS011;11727;52.134;5.052;2023-07-13T04:38:14;7.10;;;1.23;;
23115;SDS011;11727;52.134;5.052;2023-07-13T04:40:42;14.83;;;1.63;;
23115;SDS011;11727;52.134;5.052;2023-07-13T04:43:09;7.05;;;1.20;;
23115;SDS011;11727;52.134;5.052;2023-07-13T04:45:35;7.43;;;2.35;;
23115;SDS011;11727;52.134;5.052;2023-07-13T04:48:01;12.50;;;1.75;;
23115;SDS011;11727;52.134;5.052;2023-07-13T04:50:27;3.08;;;1.30;;
23115;SDS011;11727;52.134;5.052;2023-07-13T04:52:53;9.50;;;1.45;;
23115;SDS011;11727;52.134;5.052;2023-07-13T04:55:19;8.50;;;1.77;;
23115;SDS011;11727;52.134;5.052;2023-07-13T04:57:45;11.38;;;2.45;;
23115;SDS011;11727;52.134;5.052;2023-07-13T05:00:11;4.35;;;1.45;;
23115;SDS011;11727;52.134;5.052;2023-07-13T05:02:38;9.10;;;2.15;;
23115;SDS011;11727;52.134;5.052;2023-07-13T05:05:05;12.43;;;2.03;;
23115;SDS011;11727;52.134;5.052;2023-07-13T05:07:31;9.25;;;2.00;;
23115;SDS011;11727;52.134;5.052;2023-07-13T05:09:58;7.13;;;1.67;;
23115;SDS011;11727;52.134;5.052;2023-07-13T05:12:25;12.30;;;2.13;;
23115;SDS011;11727;52.134;5.052;2023-07-13T05:14:51;7.72;;;1.85;;
23115;SDS011;11727;52.134;5.052;2023-07-13T05:17:16;4.40;;;1.15;;
23115;SDS011;11727;52.134;5.052;2023-07-13T05:19:42;4.95;;;1.58;;
23115;SDS011;11727;52.134;5.052;2023-07-13T05:22:08;13.07;;;2.58;;
23115;SDS011;11727;52.134;5.052;2023-07-13T05:24:33;10.98;;;2.25;;
23115;SDS011;11727;52.134;5.052;2023-07-13T05:26:59;10.35;;;1.70;;
23115;SDS011;11727;52.134;5.052;2023-07-13T05:29:24;9.50;;;2.03;;
23115;SDS011;11727;52.134;5.052;2023-07-13T05:31:50;8.45;;;1.40;;
23115;SDS011;11727;52.134;5.052;2023-07-13T05:34:16;3.70;;;1.10;;
23115;SDS011;11727;52.134;5.052;2023-07-13T05:36:42;6.63;;;2.15;;
23115;SDS011;11727;52.134;5.052;2023-07-13T05:39:07;7.60;;;1.92;;
23115;SDS011;11727;52.134;5.052;2023-07-13T05:41:33;13.52;;;1.85;;
23115;SDS011;11727;52.134;5.052;2023-07-13T05:43:59;6.88;;;1.40;;
23115;SDS011;11727;52.134;5.052;2023-07-13T05:46:25;7.60;;;1.23;;
23115;SDS011;11727;52.134;5.052;2023-07-13T05:48:50;7.65;;;1.83;;
23115;SDS011;11727;52.134;5.052;2023-07-13T05:51:16;7.07;;;1.60;;
23115;SDS011;11727;52.134;5.052;2023-07-13T05:53:42;10.02;;;2.25;;
23115;SDS011;11727;52.134;5.052;2023-07-13T05:56:07;13.82;;;2.00;;
23115;SDS011;11727;52.134;5.052;2023-07-13T05:58:33;9.10;;;1.50;;
23115;SDS011;11727;52.134;5.052;2023-07-13T06:01:01;15.30;;;2.00;;
23115;SDS011;11727;52.134;5.052;2023-07-13T06:03:28;4.88;;;1.65;;
23115;SDS011;11727;52.134;5.052;2023-07-13T06:05:54;10.43;;;1.85;;
23115;SDS011;11727;52.134;5.052;2023-07-13T06:08:20;7.65;;;1.98;;
23115;SDS011;11727;52.134;5.052;2023-07-13T06:10:46;10.70;;;2.13;;
23115;SDS011;11727;52.134;5.052;2023-07-13T06:13:11;8.07;;;2.65;;
23115;SDS011;11727;52.134;5.052;2023-07-13T06:15:37;10.45;;;2.47;;
23115;SDS011;11727;52.134;5.052;2023-07-13T06:18:02;8.25;;;1.88;;
23115;SDS011;11727;52.134;5.052;2023-07-13T06:20:28;20.25;;;2.00;;
23115;SDS011;11727;52.134;5.052;2023-07-13T06:22:54;6.28;;;1.70;;
23115;SDS011;11727;52.134;5.052;2023-07-13T06:25:20;12.07;;;2.80;;
23115;SDS011;11727;52.134;5.052;2023-07-13T06:27:46;10.02;;;2.17;;
23115;SDS011;11727;52.134;5.052;2023-07-13T06:30:11;12.82;;;2.13;;
23115;SDS011;11727;52.134;5.052;2023-07-13T06:32:37;10.73;;;2.17;;
23115;SDS011;11727;52.134;5.052;2023-07-13T06:35:03;13.48;;;2.22;;
23115;SDS011;11727;52.134;5.052;2023-07-13T06:37:29;8.35;;;2.42;;
23115;SDS011;11727;52.134;5.052;2023-07-13T06:39:54;10.10;;;1.73;;
23115;SDS011;11727;52.134;5.052;2023-07-13T06:42:20;18.05;;;2.47;;
23115;SDS011;11727;52.134;5.052;2023-07-13T06:44:46;8.73;;;2.15;;
23115;SDS011;11727;52.134;5.052;2023-07-13T06:47:11;15.65;;;3.80;;
23115;SDS011;11727;52.134;5.052;2023-07-13T06:49:37;9.30;;;2.67;;
23115;SDS011;11727;52.134;5.052;2023-07-13T06:52:03;8.18;;;2.70;;
23115;SDS011;11727;52.134;5.052;2023-07-13T06:54:29;9.90;;;3.00;;
23115;SDS011;11727;52.134;5.052;2023-07-13T06:56:54;5.13;;;2.67;;
23115;SDS011;11727;52.134;5.052;2023-07-13T06:59:20;3.90;;;0.80;;
23115;SDS011;11727;52.134;5.052;2023-07-13T07:01:45;6.30;;;1.25;;
23115;SDS011;11727;52.134;5.052;2023-07-13T07:04:11;4.20;;;1.02;;
23115;SDS011;11727;52.134;5.052;2023-07-13T07:06:37;4.40;;;0.80;;
23115;SDS011;11727;52.134;5.052;2023-07-13T07:09:02;2.90;;;0.77;;
23115;SDS011;11727;52.134;5.052;2023-07-13T07:11:28;4.53;;;0.95;;
23115;SDS011;11727;52.134;5.052;2023-07-13T07:13:54;3.42;;;1.13;;
23115;SDS011;11727;52.134;5.052;2023-07-13T07:16:20;2.83;;;1.20;;
23115;SDS011;11727;52.134;5.052;2023-07-13T07:18:46;4.47;;;0.90;;
23115;SDS011;11727;52.134;5.052;2023-07-13T07:21:12;4.93;;;1.00;;
23115;SDS011;11727;52.134;5.052;2023-07-13T07:23:38;3.05;;;0.70;;
23115;SDS011;11727;52.134;5.052;2023-07-13T07:26:04;6.53;;;0.90;;
23115;SDS011;11727;52.134;5.052;2023-07-13T07:28:30;8.90;;;1.70;;
23115;SDS011;11727;52.134;5.052;2023-07-13T07:30:57;5.65;;;1.58;;
23115;SDS011;11727;52.134;5.052;2023-07-13T07:33:23;6.53;;;1.83;;
23115;SDS011;11727;52.134;5.052;2023-07-13T07:35:49;4.18;;;2.03;;
23115;SDS011;11727;52.134;5.052;2023-07-13T07:38:15;6.75;;;2.50;;
23115;SDS011;11727;52.134;5.052;2023-07-13T07:40:44;7.72;;;3.05;;
23115;SDS011;11727;52.134;5.052;2023-07-13T07:43:13;7.78;;;2.40;;
23115;SDS011;11727;52.134;5.052;2023-07-13T07:45:44;6.05;;;2.85;;
23115;SDS011;11727;52.134;5.052;2023-07-13T07:48:10;8.55;;;3.08;;
23115;SDS011;11727;52.134;5.052;2023-07-13T07:50:36;18.67;;;3.85;;
23115;SDS011;11727;52.134;5.052;2023-07-13T07:53:02;16.42;;;3.80;;
23115;SDS011;11727;52.134;5.052;2023-07-13T07:55:28;8.00;;;3.80;;
23115;SDS011;11727;52.134;5.052;2023-07-13T07:57:54;6.47;;;3.95;;
23115;SDS011;11727;52.134;5.052;2023-07-13T08:00:21;9.25;;;4.10;;
23115;SDS011;11727;52.134;5.052;2023-07-13T08:02:47;16.60;;;3.95;;
23115;SDS011;11727;52.134;5.052;2023-07-13T08:05:13;5.45;;;3.17;;
23115;SDS011;11727;52.134;5.052;2023-07-13T08:07:39;10.65;;;4.55;;
23115;SDS011;11727;52.134;5.052;2023-07-13T08:10:05;15.82;;;3.83;;
23115;SDS011;11727;52.134;5.052;2023-07-13T08:12:35;9.68;;;3.40;;
23115;SDS011;11727;52.134;5.052;2023-07-13T08:15:02;11.43;;;4.28;;
23115;SDS011;11727;52.134;5.052;2023-07-13T08:17:28;7.90;;;3.00;;
23115;SDS011;11727;52.134;5.052;2023-07-13T08:19:54;5.55;;;2.75;;
23115;SDS011;11727;52.134;5.052;2023-07-13T08:22:20;6.53;;;2.28;;
23115;SDS011;11727;52.134;5.052;2023-07-13T08:24:45;7.97;;;2.72;;
23115;SDS011;11727;52.134;5.052;2023-07-13T08:32:44;2.10;;;1.10;;
23115;SDS011;11727;52.134;5.052;2023-07-13T08:35:37;5.13;;;1.43;;
23115;SDS011;11727;52.134;5.052;2023-07-13T08:38:02;3.53;;;1.40;;
23115;SDS011;11727;52.134;5.052;2023-07-13T08:40:28;8.90;;;2.03;;
23115;SDS011;11727;52.134;5.052;2023-07-13T08:42:54;3.00;;;1.05;;
23115;SDS011;11727;52.134;5.052;2023-07-13T08:45:41;3.20;;;1.40;;
23115;SDS011;11727;52.134;5.052;2023-07-13T08:48:11;5.65;;;1.38;;
23115;SDS011;11727;52.134;5.052;2023-07-13T08:50:49;5.15;;;1.75;;
23115;SDS011;11727;52.134;5.052;2023-07-13T08:53:16;5.88;;;1.80;;
23115;SDS011;11727;52.134;5.052;2023-07-13T08:55:43;4.43;;;2.00;;
23115;SDS011;11727;52.134;5.052;2023-07-13T08:58:11;4.18;;;1.80;;
23115;SDS011;11727;52.134;5.052;2023-07-13T09:00:48;3.90;;;1.85;;
23115;SDS011;11727;52.134;5.052;2023-07-13T09:03:23;9.98;;;1.92;;
23115;SDS011;11727;52.134;5.052;2023-07-13T09:06:10;6.47;;;2.17;;
23115;SDS011;11727;52.134;5.052;2023-07-13T09:08:57;4.35;;;2.05;;
23115;SDS011;11727;52.134;5.052;2023-07-13T09:11:35;8.00;;;2.05;;
23115;SDS011;11727;52.134;5.052;2023-07-13T09:14:32;4.32;;;2.20;;
23115;SDS011;11727;52.134;5.052;2023-07-13T09:17:17;6.22;;;2.75;;
23115;SDS011;11727;52.134;5.052;2023-07-13T09:19:49;7.07;;;3.00;;
23115;SDS011;11727;52.134;5.052;2023-07-13T09:22:27;4.93;;;2.50;;
23115;SDS011;11727;52.134;5.052;2023-07-13T09:25:12;5.15;;;3.15;;
23115;SDS011;11727;52.134;5.052;2023-07-13T09:28:00;7.07;;;2.83;;
23115;SDS011;11727;52.134;5.052;2023-07-13T09:33:34;7.20;;;2.58;;
23115;SDS011;11727;52.134;5.052;2023-07-13T09:36:00;5.25;;;2.53;;
23115;SDS011;11727;52.134;5.052;2023-07-13T09:38:28;10.37;;;2.50;;
23115;SDS011;11727;52.134;5.052;2023-07-13T09:43:29;6.53;;;2.90;;
23115;SDS011;11727;52.134;5.052;2023-07-13T09:45:55;8.20;;;2.85;;
23115;SDS011;11727;52.134;5.052;2023-07-13T09:48:20;10.23;;;2.78;;
23115;SDS011;11727;52.134;5.052;2023-07-13T09:50:46;9.27;;;2.90;;
23115;SDS011;11727;52.134;5.052;2023-07-13T09:53:13;12.02;;;2.75;;
23115;SDS011;11727;52.134;5.052;2023-07-13T09:55:41;7.85;;;2.58;;
23115;SDS011;11727;52.134;5.052;2023-07-13T10:00:39;4.90;;;2.45;;
23115;SDS011;11727;52.134;5.052;2023-07-13T10:03:14;12.35;;;3.72;;
23115;SDS011;11727;52.134;5.052;2023-07-13T10:05:46;10.98;;;2.88;;
23115;SDS011;11727;52.134;5.052;2023-07-13T10:08:19;8.57;;;2.95;;
23115;SDS011;11727;52.134;5.052;2023-07-13T10:10:59;10.75;;;4.18;;
23115;SDS011;11727;52.134;5.052;2023-07-13T10:13:26;8.82;;;2.50;;
23115;SDS011;11727;52.134;5.052;2023-07-13T10:16:16;9.88;;;3.17;;
23115;SDS011;11727;52.134;5.052;2023-07-13T10:18:45;7.30;;;3.13;;
23115;SDS011;11727;52.134;5.052;2023-07-13T10:21:19;7.57;;;3.50;;
23115;SDS011;11727;52.134;5.052;2023-07-13T10:23:56;8.93;;;3.65;;
23115;SDS011;11727;52.134;5.052;2023-07-13T10:26:31;6.20;;;3.30;;
23115;SDS011;11727;52.134;5.052;2023-07-13T10:29:00;9.18;;;3.00;;
23115;SDS011;11727;52.134;5.052;2023-07-13T10:31:32;11.73;;;3.25;;
23115;SDS011;11727;52.134;5.052;2023-07-13T10:33:59;13.93;;;3.13;;
23115;SDS011;11727;52.134;5.052;2023-07-13T10:36:30;5.95;;;2.67;;
23115;SDS011;11727;52.134;5.052;2023-07-13T10:39:04;7.28;;;2.50;;
23115;SDS011;11727;52.134;5.052;2023-07-13T10:41:32;11.57;;;2.30;;
23115;SDS011;11727;52.134;5.052;2023-07-13T10:44:01;3.72;;;2.10;;
23115;SDS011;11727;52.134;5.052;2023-07-13T10:46:29;6.57;;;2.70;;
23115;SDS011;11727;52.134;5.052;2023-07-13T10:48:59;10.38;;;2.10;;
23115;SDS011;11727;52.134;5.052;2023-07-13T10:51:29;4.57;;;2.55;;
23115;SDS011;11727;52.134;5.052;2023-07-13T10:54:56;5.68;;;2.38;;
23115;SDS011;11727;52.134;5.052;2023-07-13T11:02:39;7.13;;;2.42;;
23115;SDS011;11727;52.134;5.052;2023-07-13T11:05:26;8.73;;;2.42;;
23115;SDS011;11727;52.134;5.052;2023-07-13T11:07:55;4.88;;;1.90;;
23115;SDS011;11727;52.134;5.052;2023-07-13T11:10:52;6.72;;;2.22;;
23115;SDS011;11727;52.134;5.052;2023-07-13T11:16:14;7.93;;;2.78;;
23115;SDS011;11727;52.134;5.052;2023-07-13T11:21:28;6.95;;;2.83;;
23115;SDS011;11727;52.134;5.052;2023-07-13T11:24:13;6.72;;;2.50;;
23115;SDS011;11727;52.134;5.052;2023-07-13T11:31:57;7.47;;;2.60;;
23115;SDS011;11727;52.134;5.052;2023-07-13T11:34:43;10.73;;;2.42;;
23115;SDS011;11727;52.134;5.052;2023-07-13T11:37:12;8.30;;;2.70;;
23115;SDS011;11727;52.134;5.052;2023-07-13T11:39:43;4.10;;;2.17;;
23115;SDS011;11727;52.134;5.052;2023-07-13T11:42:15;6.03;;;2.40;;
23115;SDS011;11727;52.134;5.052;2023-07-13T11:44:43;9.80;;;2.22;;
23115;SDS011;11727;52.134;5.052;2023-07-13T11:47:18;8.98;;;2.28;;
23115;SDS011;11727;52.134;5.052;2023-07-13T11:49:54;4.65;;;1.58;;
23115;SDS011;11727;52.134;5.052;2023-07-13T11:52:34;9.27;;;2.53;;
23115;SDS011;11727;52.134;5.052;2023-07-13T11:55:02;12.18;;;3.17;;
23115;SDS011;11727;52.134;5.052;2023-07-13T11:57:39;6.10;;;2.30;;
23115;SDS011;11727;52.134;5.052;2023-07-13T12:00:21;5.22;;;2.00;;
23115;SDS011;11727;52.134;5.052;2023-07-13T12:02:52;4.47;;;2.35;;
23115;SDS011;11727;52.134;5.052;2023-07-13T12:05:20;4.30;;;1.92;;
23115;SDS011;11727;52.134;5.052;2023-07-13T12:07:46;3.92;;;2.35;;
23115;SDS011;11727;52.134;5.052;2023-07-13T12:12:56;10.70;;;2.47;;
23115;SDS011;11727;52.134;5.052;2023-07-13T12:15:28;4.95;;;2.28;;
23115;SDS011;11727;52.134;5.052;2023-07-13T12:17:59;5.45;;;2.42;;
23115;SDS011;11727;52.134;5.052;2023-07-13T12:20:26;3.97;;;1.95;;
23115;SDS011;11727;52.134;5.052;2023-07-13T12:22:53;4.85;;;1.90;;
23115;SDS011;11727;52.134;5.052;2023-07-13T12:25:19;6.20;;;2.30;;
23115;SDS011;11727;52.134;5.052;2023-07-13T12:27:47;5.97;;;2.10;;
23115;SDS011;11727;52.134;5.052;2023-07-13T12:30:28;5.13;;;1.70;;
23115;SDS011;11727;52.134;5.052;2023-07-13T12:33:05;4.65;;;2.00;;
23115;SDS011;11727;52.134;5.052;2023-07-13T12:35:40;7.60;;;1.88;;
23115;SDS011;11727;52.134;5.052;2023-07-13T12:38:10;3.30;;;2.30;;
23115;SDS011;11727;52.134;5.052;2023-07-13T12:40:36;4.07;;;2.33;;
23115;SDS011;11727;52.134;5.052;2023-07-13T12:43:03;2.67;;;1.50;;
23115;SDS011;11727;52.134;5.052;2023-07-13T12:45:31;3.58;;;1.95;;
23115;SDS011;11727;52.134;5.052;2023-07-13T12:47:58;3.75;;;1.83;;
23115;SDS011;11727;52.134;5.052;2023-07-13T12:50:37;5.80;;;1.70;;
23115;SDS011;11727;52.134;5.052;2023-07-13T12:55:48;2.47;;;1.33;;
23115;SDS011;11727;52.134;5.052;2023-07-13T12:58:20;6.38;;;1.85;;
23115;SDS011;11727;52.134;5.052;2023-07-13T13:00:57;4.18;;;1.70;;
23115;SDS011;11727;52.134;5.052;2023-07-13T13:03:40;2.75;;;1.60;;
23115;SDS011;11727;52.134;5.052;2023-07-13T13:08:47;3.83;;;1.48;;
23115;SDS011;11727;52.134;5.052;2023-07-13T13:11:17;3.97;;;1.70;;
23115;SDS011;11727;52.134;5.052;2023-07-13T13:13:44;8.63;;;2.08;;
23115;SDS011;11727;52.134;5.052;2023-07-13T13:18:46;2.67;;;1.45;;
23115;SDS011;11727;52.134;5.052;2023-07-13T13:21:12;4.07;;;1.40;;
23115;SDS011;11727;52.134;5.052;2023-07-13T13:23:38;5.63;;;1.75;;
23115;SDS011;11727;52.134;5.052;2023-07-13T13:26:07;3.55;;;1.55;;
23115;SDS011;11727;52.134;5.052;2023-07-13T13:28:35;8.40;;;2.05;;
23115;SDS011;11727;52.134;5.052;2023-07-13T13:31:00;3.42;;;1.30;;
23115;SDS011;11727;52.134;5.052;2023-07-13T13:33:26;3.45;;;1.60;;
23115;SDS011;11727;52.134;5.052;2023-07-13T13:35:52;5.30;;;1.58;;
23115;SDS011;11727;52.134;5.052;2023-07-13T13:38:19;5.30;;;1.63;;
23115;SDS011;11727;52.134;5.052;2023-07-13T13:40:48;4.30;;;1.80;;
23115;SDS011;11727;52.134;5.052;2023-07-13T13:43:15;1.92;;;1.10;;
23115;SDS011;11727;52.134;5.052;2023-07-13T13:45:41;2.28;;;1.15;;
23115;SDS011;11727;52.134;5.052;2023-07-13T13:48:11;6.97;;;1.67;;
23115;SDS011;11727;52.134;5.052;2023-07-13T13:50:40;4.15;;;1.58;;
23115;SDS011;11727;52.134;5.052;2023-07-13T13:53:08;4.82;;;1.40;;
23115;SDS011;11727;52.134;5.052;2023-07-13T13:55:40;3.92;;;1.52;;
23115;SDS011;11727;52.134;5.052;2023-07-13T13:58:07;1.58;;;0.90;;
23115;SDS011;11727;52.134;5.052;2023-07-13T14:00:34;3.38;;;1.67;;
23115;SDS011;11727;52.134;5.052;2023-07-13T14:03:00;6.03;;;1.35;;
23115;SDS011;11727;52.134;5.052;2023-07-13T14:05:26;3.67;;;1.35;;
23115;SDS011;11727;52.134;5.052;2023-07-13T14:07:52;4.80;;;1.73;;
23115;SDS011;11727;52.134;5.052;2023-07-13T14:10:19;5.05;;;1.58;;
23115;SDS011;11727;52.134;5.052;2023-07-13T14:12:46;2.42;;;1.23;;
23115;SDS011;11727;52.134;5.052;2023-07-13T14:17:42;3.22;;;1.05;;
23115;SDS011;11727;52.134;5.052;2023-07-13T14:20:12;5.60;;;1.60;;
23115;SDS011;11727;52.134;5.052;2023-07-13T14:22:38;3.97;;;1.58;;
23115;SDS011;11727;52.134;5.052;2023-07-13T14:25:04;3.15;;;1.65;;
23115;SDS011;11727;52.134;5.052;2023-07-13T14:27:30;4.72;;;1.40;;
23115;SDS011;11727;52.134;5.052;2023-07-13T14:29:55;4.95;;;1.27;;
23115;SDS011;11727;52.134;5.052;2023-07-13T14:32:21;5.97;;;1.60;;
23115;SDS011;11727;52.134;5.052;2023-07-13T14:34:46;5.15;;;1.40;;
23115;SDS011;11727;52.134;5.052;2023-07-13T14:37:13;3.97;;;1.38;;
23115;SDS011;11727;52.134;5.052;2023-07-13T14:39:42;4.47;;;1.10;;
23115;SDS011;11727;52.134;5.052;2023-07-13T14:42:10;5.53;;;1.05;;
23115;SDS011;11727;52.134;5.052;2023-07-13T14:44:37;4.70;;;1.30;;
23115;SDS011;11727;52.134;5.052;2023-07-13T14:47:03;8.30;;;2.00;;
23115;SDS011;11727;52.134;5.052;2023-07-13T14:49:34;3.22;;;1.23;;
23115;SDS011;11727;52.134;5.052;2023-07-13T14:52:05;3.20;;;1.48;;
23115;SDS011;11727;52.134;5.052;2023-07-13T14:54:42;2.70;;;0.95;;
23115;SDS011;11727;52.134;5.052;2023-07-13T14:57:15;2.83;;;0.90;;
23115;SDS011;11727;52.134;5.052;2023-07-13T14:59:43;1.85;;;0.93;;
23115;SDS011;11727;52.134;5.052;2023-07-13T15:02:27;7.20;;;1.27;;
23115;SDS011;11727;52.134;5.052;2023-07-13T15:04:56;2.67;;;1.42;;
23115;SDS011;11727;52.134;5.052;2023-07-13T15:07:22;1.63;;;0.87;;
23115;SDS011;11727;52.134;5.052;2023-07-13T15:09:48;3.55;;;1.00;;
23115;SDS011;11727;52.134;5.052;2023-07-13T15:12:14;2.67;;;1.15;;
23115;SDS011;11727;52.134;5.052;2023-07-13T15:14:39;7.00;;;1.85;;
23115;SDS011;11727;52.134;5.052;2023-07-13T15:17:08;4.72;;;0.90;;
23115;SDS011;11727;52.134;5.052;2023-07-13T15:19:51;2.78;;;1.02;;
23115;SDS011;11727;52.134;5.052;2023-07-13T15:22:16;3.13;;;0.93;;
23115;SDS011;11727;52.134;5.052;2023-07-13T15:24:42;3.67;;;0.98;;
23115;SDS011;11727;52.134;5.052;2023-07-13T15:27:10;2.50;;;0.80;;
23115;SDS011;11727;52.134;5.052;2023-07-13T15:29:37;4.78;;;1.25;;
23115;SDS011;11727;52.134;5.052;2023-07-13T15:32:03;2.78;;;1.00;;
23115;SDS011;11727;52.134;5.052;2023-07-13T15:34:30;1.42;;;0.80;;
23115;SDS011;11727;52.134;5.052;2023-07-13T15:36:56;2.63;;;0.85;;
23115;SDS011;11727;52.134;5.052;2023-07-13T15:39:21;2.22;;;0.98;;
23115;SDS011;11727;52.134;5.052;2023-07-13T15:41:47;5.53;;;1.85;;